WEATHER DATA

YESTERDAY
Time Temp. Dewp. Hum. Wind dir Wind speed Wind gust Bar. 1h Prec. 24h Prec.
00:04 12.4 7.1 70 270 0.6 1.1 1013.1 0.0000 0.0000
00:14 12.3 7 70 270 0.3 0.6 1013.1 0.0000 0.0000
00:24 12.3 7 70 300 0.6 1.1 1013.1 0.0000 0.0000
00:34 12.2 6.9 70 270 0.3 1.1 1013 0.0000 0.0000
00:44 12.2 6.9 70 225 0.3 0.8 1013 0.0000 0.0000
00:54 12.2 6.9 70 270 0.3 0.8 1013 0.0000 0.0000
01:04 12.2 6.9 70 270 0.3 1.4 1013 0.0000 0.0000
01:15 12.1 6.8 70 312 1.1 1.9 1013 0.0000 0.0000
01:25 12.1 7 71 292 0.6 1.4 1012.9 0.0000 0.0000
01:34 12 6.9 71 270 0.3 0.8 1012.8 0.0000 0.0000
01:44 12 6.9 71 270 0.3 0.8 1012.8 0.0000 0.0000
01:55 11.9 6.8 71 236 0.6 0.8 1012.7 0.0000 0.0000
02:05 11.7 6.8 72 244 0.8 1.4 1012.7 0.0000 0.0000
02:14 11.6 6.7 72 241 0.8 1.7 1012.6 0.0000 0.0000
02:25 11.5 6.6 72 247 0.6 1.4 1012.6 0.0000 0.0000
02:35 11.5 6.6 72 244 0.8 1.4 1012.5 0.0000 0.0000
02:45 11.5 6.6 72 244 0.6 1.4 1012.5 0.0000 0.0000
02:55 11.5 6.8 73 225 0.3 0.8 1012.5 0.0000 0.0000
03:05 11.5 6.8 73 270 0.3 0.8 1012.6 0.0000 0.0000
03:15 11.5 6.8 73 270 0.3 0.8 1012.6 0.0000 0.0000
03:25 11.4 6.7 73 270 0.3 1.1 1012.5 0.0000 0.0000
03:36 11.3 6.8 74 270 0.3 1.1 1012.5 0.0000 0.0000
03:45 11.2 6.5 73 285 0.6 1.4 1012.3 0.0000 0.0000
03:55 11.1 6.6 74 270 0.3 0.8 1012 0.0000 0.0000
04:05 10.9 6.5 74 270 0.3 1.1 1012 0.0000 0.0000
04:16 10.7 6.3 74 270 0.3 0.8 1012.1 0.0000 0.0000
04:25 10.4 6 74 242 0.6 0.8 1012.1 0.0000 0.0000
04:35 10.3 6.1 75 229 0.3 0.8 1012 0.0000 0.0000
04:46 9.9 5.7 75 233 0.3 1.1 1011.8 0.0000 0.0000
04:56 9.7 5.5 75 270 0.3 1.1 1011.7 0.0000 0.0000
05:05 9.6 5.4 75 241 0.8 1.7 1011.6 0.0000 0.0000
05:15 9.3 5.1 75 251 1.1 2.2 1011.6 0.0000 0.0000
05:26 8.8 4.8 76 238 0.8 1.7 1011.5 0.0000 0.0000
05:36 8.5 4.7 77 225 0.6 1.4 1011.5 0.0000 0.0000
05:45 8.5 4.7 77 237 1.4 1.9 1011.5 0.0000 0.0000
05:56 8.3 4.5 77 243 1.1 1.9 1011.4 0.0000 0.0000
06:06 8.1 4.3 77 227 0.6 1.4 1011.5 0.0000 0.0000
06:16 7.9 4.3 78 235 0.6 1.4 1011.3 0.0000 0.0000
06:26 7.7 4.1 78 233 0.8 1.4 1011.4 0.0000 0.0000
06:36 7.6 4 78 240 1.1 1.7 1011.4 0.0000 0.0000
06:46 7.4 3.8 78 241 0.8 1.4 1011.4 0.0000 0.0000
06:56 7.4 3.8 78 247 0.8 1.4 1011.6 0.0000 0.0000
07:06 7.5 4.1 79 330 0.6 1.1 1011.8 0.0000 0.0000
07:16 7.6 4.2 79 308 0.6 1.1 1011.8 0.0000 0.0000
07:26 7.8 4.4 79 239 0.3 0.8 1012 0.0000 0.0000
07:47 7.7 4.3 79 243 0.6 1.4 1012 0.0000 0.0000
07:56 7.6 4.2 79 226 0.8 1.7 1012.1 0.0000 0.0000
08:06 7.8 4.6 80 241 0.8 1.4 1012.2 0.0000 0.0000
08:17 8.1 4.9 80 239 0.6 1.1 1012.2 0.0000 0.0000
08:27 8.4 5.2 80 270 0.3 0.8 1012.1 0.0000 0.0000
08:36 8.7 5.3 79 231 0.6 1.1 1012.2 0.0000 0.0000
08:47 8.9 5.5 79 235 0.6 1.4 1012.5 0.0000 0.0000
08:57 9.2 5.8 79 270 0.6 1.7 1012.2 0.0000 0.0000
09:07 9.6 6 78 270 0.6 1.7 1012.3 0.0000 0.0000
09:16 9.8 6 77 270 0.3 0.8 1012.2 0.0000 0.0000
09:27 10 6.2 77 302 0.6 1.4 1012.2 0.0000 0.0000
09:37 10.2 6.2 76 297 0.6 1.4 1012.1 0.0000 0.0000
09:47 10.3 6.3 76 298 0.6 1.4 1012.2 0.0000 0.0000
09:57 10.8 6.7 76 238 0.3 1.1 1012.3 0.0000 0.0000
10:07 11.2 6.9 75 270 0.3 0.8 1012.1 0.0000 0.0000
10:17 11.7 7 73 270 0.3 0.8 1012.2 0.0000 0.0000
10:27 11.9 6.4 69 315 0.6 1.9 1012.2 0.0000 0.0000
10:38 12 6.7 70 309 0.3 1.4 1012 0.0000 0.0000
10:47 12.1 6.8 70 291 0.6 1.1 1012 0.0000 0.0000
10:57 12.4 6.9 69 210 0.3 0.8 1011.9 0.0000 0.0000
11:08 12.5 7 69 318 0.3 1.1 1012 0.0000 0.0000
11:18 12.8 7 68 304 0.6 1.1 1012.1 0.0000 0.0000
11:27 12.9 6.9 67 336 0.3 0.8 1012.1 0.0000 0.0000
11:37 13 7 67 341 0.8 1.4 1012.2 0.0000 0.0000
11:48 13 7 67 239 0.3 0.8 1012.1 0.0000 0.0000
11:58 13.1 7.1 67 325 0.6 1.7 1011.9 0.0000 0.0000
12:07 13.4 7.2 66 324 0.6 1.7 1011.9 0.0000 0.0000
12:18 13.8 7.3 65 270 0.6 1.4 1012 0.0000 0.0000
12:28 13.9 7.4 65 270 0.6 1.4 1012 0.0000 0.0000
12:38 14 7.3 64 295 0.8 1.7 1011.9 0.0000 0.0000
12:48 14.2 7.5 64 304 0.8 2.2 1012 0.0000 0.0000
12:58 14.2 7.3 63 324 0.6 2.2 1012.1 0.0000 0.0000
13:08 14.2 7.3 63 309 0.6 2.5 1011.9 0.0000 0.0000
13:18 14.4 7.2 62 270 0.6 2.2 1011.9 0.0000 0.0000
13:29 14.3 7.4 63 306 0.6 1.9 1011.9 0.0000 0.0000
13:38 14.4 7.2 62 270 0.3 0.8 1012 0.0000 0.0000
13:48 14.4 7.5 63 270 0.6 1.7 1012.1 0.0000 0.0000
13:58 14.3 7.4 63 270 0.3 1.1 1012 0.0000 0.0000
14:09 14.5 7.5 63 270 0.3 1.1 1012 0.0000 0.0000
14:18 14.7 7.5 62 146 0.3 1.1 1012 0.0000 0.0000
14:28 14.7 7.5 62 261 1.1 3.6 1011.9 0.0000 0.0000
14:39 13.9 7.7 66 235 0.8 2.5 1012.2 0.0000 0.0000
14:49 13 8.1 72 241 0.6 1.9 1012.3 0.3200 0.3000
14:55 12.6 7.9 73 246 0.6 1.7 1012.2 0.4800 0.5000
15:15 12.4 8.1 75 212 0.3 1.1 1012.2 0.4800 0.5000
15:26 12.8 8.5 75 218 0.3 1.1 1012.2 0.4800 0.5000
15:35 13 8.5 74 212 0.6 1.7 1012.2 0.3200 0.5000
15:45 13.1 8 71 164 0.8 2.2 1012.2 0.0000 0.5000
15:55 13 7.7 70 183 0.8 3.1 1012.3 0.0000 0.5000
16:06 13.1 7.8 70 150 0.6 2.5 1012.3 0.0000 0.5000
16:15 13.2 7.9 70 244 0.8 2.5 1012.3 0.0000 0.5000
16:36 13.6 8 69 250 0.6 2.5 1012.5 0.0000 0.5000
16:46 13.7 7.9 68 225 0.8 2.8 1012.3 0.0000 0.5000
16:55 13.7 8.1 69 195 0.6 2.2 1012.3 0.0000 0.5000
17:06 13.9 8.1 68 214 0.6 1.9 1012.5 0.0000 0.5000
17:16 13.9 7.9 67 259 0.8 2.2 1012.5 0.0000 0.5000
17:26 13.7 7.7 67 285 1.1 3.3 1012.6 0.0000 0.5000
17:35 13.6 7.2 65 289 1.1 3.1 1012.6 0.0000 0.5000
17:46 13.7 7.2 65 270 1.1 2.5 1012.7 0.0000 0.5000
18:00 13.6 7.8 68 251 1.7 4.4 1012.8 0.4810 1.0000
18:10 12.8 7.7 71 189 0.3 1.1 1012.9 1.1230 1.6000
18:21 12.5 8 74 270 0.6 1.4 1012.9 1.1230 1.6000
18:31 12.6 8.3 75 286 0.6 1.4 1012.8 1.1230 1.6000
18:40 12.7 8 73 301 1.4 3.9 1012.8 1.1230 1.6000
18:51 12.3 7.6 73 284 1.4 3.9 1012.9 1.1230 1.6000
19:01 11.6 7.5 76 293 0.8 1.9 1013.1 0.0000 1.6000
19:11 11.5 7.4 76 213 0.6 1.4 1013.1 0.0000 1.6000
19:21 11.5 7.4 76 251 0.6 1.4 1013.1 0.0000 1.6000
19:31 11.5 7.4 76 225 0.6 1.4 1013.2 0.0000 1.6000
19:41 11.6 7.5 76 231 0.8 1.7 1013.1 0.0000 1.6000
19:51 11.7 7.2 74 253 0.8 1.9 1013.3 0.0000 1.6000
20:01 11.6 6.9 73 270 0.8 2.5 1013.4 0.0000 1.6000
20:11 11.5 6.6 72 286 1.4 3.9 1013.5 0.0000 1.6000
20:21 11.4 6.5 72 281 1.1 3.9 1013.6 0.0000 1.6000
20:31 11.2 6.3 72 299 1.4 4.2 1013.7 0.0000 1.6000
20:41 11.2 6.5 73 290 1.4 3.3 1013.8 0.0000 1.6000
20:51 11.1 6.4 73 294 1.4 3.3 1014.1 0.0000 1.6000
21:01 11.1 6.2 72 256 0.8 2.5 1014.1 0.0000 1.6000
21:12 10.9 6.1 72 287 1.1 3.1 1014.2 0.0000 1.6000
21:21 10.9 6.1 72 302 1.1 2.8 1014.2 0.0000 1.6000
21:31 10.9 6.1 72 270 0.8 1.9 1014.4 0.0000 1.6000
21:42 10.8 6.2 73 280 0.8 2.5 1014.4 0.0000 1.6000
21:52 10.8 6.2 73 297 1.1 3.1 1014.5 0.0000 1.6000
22:01 10.7 6.1 73 254 0.6 1.7 1014.7 0.0000 1.6000
22:11 10.7 6.3 74 270 0.6 2.2 1014.9 0.0000 1.6000
22:22 10.6 6.2 74 212 0.6 1.4 1015.1 0.0000 1.6000
22:32 10.5 6.3 75 270 0.6 1.1 1015.3 0.0000 1.6000
22:41 10.5 6.3 75 270 0.6 1.1 1015.5 0.0000 1.6000
22:52 10.5 6.3 75 270 0.3 0.8 1015.7 0.0000 1.6000
23:02 10.5 6.3 75 270 0.3 1.1 1015.8 0.0000 1.6000
23:12 10.5 6.3 75 270 0.3 0.6 1015.9 0.0000 1.6000
23:22 10.5 6.3 75 286 0.6 0.8 1016 0.0000 1.6000
23:32 10.5 6.1 74 270 0.3 0.8 1016.1 0.0000 1.6000
23:42 10.5 6.1 74 270 0.8 1.9 1016.2 0.0000 1.6000
23:52 10.4 6 74 237 0.3 1.4 1016.4 0.0000 1.6000

DAY STATISTIC

2022-05-24
TEMPERATURE
AVERAGE
11.4
HIGH
14.7
14:18
LOW
7.4
06:46
PRESSURE
AVERAGE
1012.7
HIGH
1016.4
23:52
LOW
1011.3
06:16
DEWPOINT
AVERAGE
6.6
HIGH
8.5
15:26
LOW
3.8
06:46
HUMIDITY
AVERAGE
72
HIGH
80
08:06
LOW
62
13:18
WIND SPEED
AVERAGE
0.6
HIGH
1.7
18:00
WIND GUST
AVERAGE
1.7
HIGH
4.4
18:00
WIND DIRECTION
PREVAILING
W
44.3%
N
0.7
NE
0.0
E
0.0
SE
1.4
S
2.9
SW
32.9
W
44.3
NW
17.9
PRECIPITATION
RAIN HOUR
1.1
RAIN DAY
1.6
TEMPERATURE (°C)
LOW
7.4
HIGH
14.7
AVERAGE
11.4
PRESSURE (hpa)
LOW
1011.3
HIGH
1016.4
AVERAGE
1012.7
DEVICE